Aviation Digital Data Service (ADDS)

Output produced by TAFs form (1714 UTC 23 October 2017)
found at http://www.aviationweather.gov/adds/tafs/
 
KMCO 231653Z 17013KT 10SM FEW030 BKN160 OVC250 28/22 A3000 RMK AO2 SLP157 T02830222 $
KMCO 231443Z 2315/2412 15011KT P6SM SCT025 BKN100 OVC200 
     FM231800 17010KT P6SM VCSH BKN040 BKN100 OVC200 
     TEMPO 2321/2324 3SM SHRA BKN030 OVC100 
     FM240000 18005KT P6SM VCSH SCT040 BKN080